Airfield :
LOGIN :

Register | Disclaimer

   EN    FR    IT 

 










Legend :    VFR   Marginal VFR   IFR   Intensive IFR   Very Intensive IFR
Visi :
Ceiling :
>= 8 km
>= 3000ft
5 to 8 km
1000 to 3000 ft
1500m to 5 km
500 to 1000 ft
800 to 1500m
200 to 500 ft
< 800m
< 200 ft
Symbols :   Thunderstorms  Fog  Heavy snow  Heavy precipitations  Wind > 20 kt
SIGMETs :     Misc.  Thunderstorms  Icing  Turbulence  Mountain Waves  Volcanic Ashes






- Airport Elevation : 219 ft
- IATA code : DNR


LFRD - Dinard

CURRENT METAR :
  • 181700Z AUTO 20012KT 9999 FEW035 BKN043 OVC052 09/05 Q1023 TEMPO 3000 RADZ BKN008 BECMG 21015G25KT

EXPIRED METARs :
  • 181630Z AUTO 19010KT 9999 OVC034 09/05 Q1023 TEMPO 3000 RADZ BKN008 BECMG 21015G25KT
  • 181600Z AUTO 19009KT 9999 BKN037 OVC046 09/05 Q1023 TEMPO RA BECMG 21015G25KT
  • 181530Z AUTO 19009KT CAVOK 08/05 Q1023 TEMPO RA BECMG 21015G25KT
  • 181500Z AUTO 21010KT CAVOK 09/05 Q1024 TEMPO RA BECMG 21015G25KT
  • 181430Z AUTO 21011KT 9999 FEW039 BKN058 09/05 Q1024 TEMPO RA BECMG 21015G25KT

TAF TAF LFRD
Valid from the 18 at 12:00 until the 19 at 12:00 UTC


181100Z 1812/1912 20010KT 9999 SCT020
PROB30
TEMPO 1813/1818 5000 RA BKN015
TEMPO 1818/1912 5000 RA BKN012
BECMG 1815/1818 21015G25KT
PROB40
TEMPO 1818/1912 3000 RADZ BKN008
BECMG 1909/1912 20017G30KT
ATIS : +33 2 99 16 81 50



MET'MAP, your aeronautical weather chart ! - Copyright ORBIFLY December 2007 - Disclaimer

ORBIFLY MET'MAP TEAM :

Programming & Development : Alexandra Zaïnal
Concept & original design : Baudouin d'Aumeries
Assistance for programming : Marc-Olivier Méhu
Technical & hardware support : Manuel Goepfert

Contact : metmap@orbifly.com




SOURCES & CREDITS :

   NOAA